sensor_id;sensor_type;location;lat;lon;timestamp;pressure;altitude;pressure_sealevel;temperature;humidity
52343;BME280;38277;51.972;4.624;2022-11-06T00:00:44;101500.0;;;12.3;79.0
52343;BME280;38277;51.972;4.624;2022-11-06T00:05:07;101510.0;;;12.3;78.5
52343;BME280;38277;51.972;4.624;2022-11-06T00:09:49;101500.0;;;12.3;78.5
52343;BME280;38277;51.972;4.624;2022-11-06T00:18:40;101490.0;;;12.4;78.5
52343;BME280;38277;51.972;4.624;2022-11-06T00:23:19;101480.0;;;12.4;78.5
52343;BME280;38277;51.972;4.624;2022-11-06T00:27:54;101480.0;;;12.3;78.5
52343;BME280;38277;51.972;4.624;2022-11-06T00:31:55;101470.0;;;12.3;78.5
52343;BME280;38277;51.972;4.624;2022-11-06T00:36:36;101480.0;;;12.4;79.0
52343;BME280;38277;51.972;4.624;2022-11-06T00:41:00;101470.0;;;12.4;78.5
52343;BME280;38277;51.972;4.624;2022-11-06T00:45:37;101490.0;;;12.4;79.0
52343;BME280;38277;51.972;4.624;2022-11-06T00:50:02;101480.0;;;12.4;79.0
52343;BME280;38277;51.972;4.624;2022-11-06T00:54:46;101470.0;;;12.4;79.0
52343;BME280;38277;51.972;4.624;2022-11-06T00:59:16;101470.0;;;12.4;79.5
52343;BME280;38277;51.972;4.624;2022-11-06T01:03:54;101470.0;;;12.4;79.5
52343;BME280;38277;51.972;4.624;2022-11-06T01:08:04;101480.0;;;12.4;79.5
52343;BME280;38277;51.972;4.624;2022-11-06T01:12:25;101470.0;;;12.4;79.5
52343;BME280;38277;51.972;4.624;2022-11-06T01:17:01;101480.0;;;12.4;79.5
52343;BME280;38277;51.972;4.624;2022-11-06T01:21:32;101470.0;;;12.4;80.0
52343;BME280;38277;51.972;4.624;2022-11-06T01:26:16;101460.0;;;12.4;80.0
52343;BME280;38277;51.972;4.624;2022-11-06T01:30:43;101440.0;;;12.3;80.5
52343;BME280;38277;51.972;4.624;2022-11-06T01:35:11;101450.0;;;12.3;80.5
52343;BME280;38277;51.972;4.624;2022-11-06T01:39:42;101450.0;;;12.3;80.5
52343;BME280;38277;51.972;4.624;2022-11-06T01:45:30;101450.0;;;12.3;81.0
52343;BME280;38277;51.972;4.624;2022-11-06T01:48:39;101450.0;;;12.3;81.0
52343;BME280;38277;51.972;4.624;2022-11-06T01:53:10;101440.0;;;12.2;81.5
52343;BME280;38277;51.972;4.624;2022-11-06T01:57:44;101440.0;;;12.0;83.0
52343;BME280;38277;51.972;4.624;2022-11-06T02:02:24;101440.0;;;12.0;83.5
52343;BME280;38277;51.972;4.624;2022-11-06T02:06:25;101440.0;;;11.9;84.5
52343;BME280;38277;51.972;4.624;2022-11-06T02:11:43;101430.0;;;11.8;85.0
52343;BME280;38277;51.972;4.624;2022-11-06T02:15:57;101430.0;;;11.8;85.0
52343;BME280;38277;51.972;4.624;2022-11-06T02:21:00;101430.0;;;11.8;85.5
52343;BME280;38277;51.972;4.624;2022-11-06T02:25:12;101430.0;;;11.8;85.5
52343;BME280;38277;51.972;4.624;2022-11-06T02:29:03;101430.0;;;11.8;86.0
52343;BME280;38277;51.972;4.624;2022-11-06T02:33:53;101420.0;;;11.8;86.5
52343;BME280;38277;51.972;4.624;2022-11-06T02:38:02;101430.0;;;11.8;86.0
52343;BME280;38277;51.972;4.624;2022-11-06T02:42:29;101430.0;;;11.9;86.0
52343;BME280;38277;51.972;4.624;2022-11-06T02:51:49;101400.0;;;12.1;85.0
52343;BME280;38277;51.972;4.624;2022-11-06T02:56:14;101400.0;;;12.1;85.0
52343;BME280;38277;51.972;4.624;2022-11-06T03:00:38;101390.0;;;12.1;85.5
52343;BME280;38277;51.972;4.624;2022-11-06T03:05:22;101400.0;;;12.1;85.5
52343;BME280;38277;51.972;4.624;2022-11-06T03:09:27;101410.0;;;12.0;85.5
52343;BME280;38277;51.972;4.624;2022-11-06T03:14:06;101390.0;;;12.1;85.0
52343;BME280;38277;51.972;4.624;2022-11-06T03:18:40;101380.0;;;12.1;84.5
52343;BME280;38277;51.972;4.624;2022-11-06T03:27:47;101370.0;;;12.2;84.0
52343;BME280;38277;51.972;4.624;2022-11-06T03:32:10;101370.0;;;12.2;84.0
52343;BME280;38277;51.972;4.624;2022-11-06T03:36:53;101370.0;;;12.2;84.5
52343;BME280;38277;51.972;4.624;2022-11-06T03:41:13;101370.0;;;12.2;85.0
52343;BME280;38277;51.972;4.624;2022-11-06T03:50:06;101350.0;;;12.2;85.0
52343;BME280;38277;51.972;4.624;2022-11-06T03:54:37;101360.0;;;12.3;85.0
52343;BME280;38277;51.972;4.624;2022-11-06T03:59:43;101350.0;;;12.3;84.5
52343;BME280;38277;51.972;4.624;2022-11-06T04:04:22;101340.0;;;12.3;84.0
52343;BME280;38277;51.972;4.624;2022-11-06T04:08:20;101320.0;;;12.4;84.0
52343;BME280;38277;51.972;4.624;2022-11-06T04:12:29;101330.0;;;12.5;83.5
52343;BME280;38277;51.972;4.624;2022-11-06T04:17:13;101320.0;;;12.5;83.0
52343;BME280;38277;51.972;4.624;2022-11-06T04:22:06;101320.0;;;12.5;83.0
52343;BME280;38277;51.972;4.624;2022-11-06T04:26:31;101320.0;;;12.5;83.0
52343;BME280;38277;51.972;4.624;2022-11-06T04:31:08;101310.0;;;12.6;83.0
52343;BME280;38277;51.972;4.624;2022-11-06T04:35:15;101300.0;;;12.6;83.0
52343;BME280;38277;51.972;4.624;2022-11-06T04:40:26;101310.0;;;12.6;83.5
52343;BME280;38277;51.972;4.624;2022-11-06T04:43:56;101300.0;;;12.6;83.5
52343;BME280;38277;51.972;4.624;2022-11-06T04:48:28;101300.0;;;12.6;83.0
52343;BME280;38277;51.972;4.624;2022-11-06T04:53:20;101290.0;;;12.5;83.5
52343;BME280;38277;51.972;4.624;2022-11-06T04:57:52;101290.0;;;12.5;84.0
52343;BME280;38277;51.972;4.624;2022-11-06T05:02:09;101290.0;;;12.4;84.5
52343;BME280;38277;51.972;4.624;2022-11-06T05:06:44;101280.0;;;12.3;85.5
52343;BME280;38277;51.972;4.624;2022-11-06T05:11:04;101270.0;;;12.2;86.0
52343;BME280;38277;51.972;4.624;2022-11-06T05:24:43;101270.0;;;12.1;87.5
52343;BME280;38277;51.972;4.624;2022-11-06T05:28:52;101250.0;;;12.0;88.0
52343;BME280;38277;51.972;4.624;2022-11-06T05:33:51;101250.0;;;12.1;88.0
52343;BME280;38277;51.972;4.624;2022-11-06T05:47:19;101240.0;;;12.0;88.5
52343;BME280;38277;51.972;4.624;2022-11-06T06:05:17;101220.0;;;12.0;89.0
52343;BME280;38277;51.972;4.624;2022-11-06T06:13:52;101220.0;;;12.0;89.5
52343;BME280;38277;51.972;4.624;2022-11-06T06:18:41;101220.0;;;12.0;89.5
52343;BME280;38277;51.972;4.624;2022-11-06T06:22:52;101220.0;;;12.0;89.5
52343;BME280;38277;51.972;4.624;2022-11-06T06:32:02;101230.0;;;12.1;89.5
52343;BME280;38277;51.972;4.624;2022-11-06T06:36:40;101220.0;;;12.1;89.0
52343;BME280;38277;51.972;4.624;2022-11-06T06:41:17;101200.0;;;12.1;88.5
52343;BME280;38277;51.972;4.624;2022-11-06T06:45:26;101190.0;;;12.1;88.5
52343;BME280;38277;51.972;4.624;2022-11-06T06:50:15;101180.0;;;12.2;88.0
52343;BME280;38277;51.972;4.624;2022-11-06T06:54:40;101190.0;;;12.2;87.5
52343;BME280;38277;51.972;4.624;2022-11-06T06:59:11;101180.0;;;12.3;87.0
52343;BME280;38277;51.972;4.624;2022-11-06T07:07:56;101180.0;;;12.4;86.5
52343;BME280;38277;51.972;4.624;2022-11-06T07:13:17;101180.0;;;12.5;86.0
52343;BME280;38277;51.972;4.624;2022-11-06T07:17:07;101170.0;;;12.6;85.5
52343;BME280;38277;51.972;4.624;2022-11-06T07:21:28;101170.0;;;12.6;85.0
52343;BME280;38277;51.972;4.624;2022-11-06T07:36:04;101170.0;;;12.8;84.0
52343;BME280;38277;51.972;4.624;2022-11-06T07:39:40;101170.0;;;13.0;83.5
52343;BME280;38277;51.972;4.624;2022-11-06T07:44:17;101170.0;;;13.1;82.5
52343;BME280;38277;51.972;4.624;2022-11-06T07:48:50;101160.0;;;13.3;81.5
52343;BME280;38277;51.972;4.624;2022-11-06T07:52:53;101150.0;;;13.4;81.0
52343;BME280;38277;51.972;4.624;2022-11-06T07:58:12;101150.0;;;13.5;80.0
52343;BME280;38277;51.972;4.624;2022-11-06T08:02:05;101140.0;;;13.5;79.0
52343;BME280;38277;51.972;4.624;2022-11-06T08:06:47;101160.0;;;13.6;78.5
52343;BME280;38277;51.972;4.624;2022-11-06T08:11:00;101160.0;;;13.5;79.0
52343;BME280;38277;51.972;4.624;2022-11-06T08:15:28;101160.0;;;13.5;79.0
52343;BME280;38277;51.972;4.624;2022-11-06T08:20:18;101150.0;;;13.4;79.0
52343;BME280;38277;51.972;4.624;2022-11-06T08:24:33;101140.0;;;13.3;79.5
52343;BME280;38277;51.972;4.624;2022-11-06T08:28:58;101150.0;;;13.3;79.5
52343;BME280;38277;51.972;4.624;2022-11-06T08:34:07;101140.0;;;13.1;80.0
52343;BME280;38277;51.972;4.624;2022-11-06T08:39:04;101150.0;;;13.0;80.5
52343;BME280;38277;51.972;4.624;2022-11-06T08:42:52;101130.0;;;13.0;81.0
52343;BME280;38277;51.972;4.624;2022-11-06T08:47:03;101130.0;;;13.0;82.0
52343;BME280;38277;51.972;4.624;2022-11-06T08:51:30;101120.0;;;13.0;82.0
52343;BME280;38277;51.972;4.624;2022-11-06T08:56:06;101100.0;;;13.0;82.0
52343;BME280;38277;51.972;4.624;2022-11-06T09:14:04;101080.0;;;13.6;82.0
52343;BME280;38277;51.972;4.624;2022-11-06T09:18:52;101080.0;;;13.7;81.0
52343;BME280;38277;51.972;4.624;2022-11-06T09:23:00;101080.0;;;13.9;79.5
52343;BME280;38277;51.972;4.624;2022-11-06T09:27:27;101080.0;;;14.0;79.0
52343;BME280;38277;51.972;4.624;2022-11-06T09:32:02;101080.0;;;14.0;78.5
52343;BME280;38277;51.972;4.624;2022-11-06T09:36:48;101070.0;;;14.1;78.5
52343;BME280;38277;51.972;4.624;2022-11-06T09:41:01;101060.0;;;14.2;78.0
52343;BME280;38277;51.972;4.624;2022-11-06T09:45:43;101070.0;;;14.3;77.5
52343;BME280;38277;51.972;4.624;2022-11-06T09:50:04;101060.0;;;14.3;77.0
52343;BME280;38277;51.972;4.624;2022-11-06T09:54:49;101050.0;;;14.3;77.0
52343;BME280;38277;51.972;4.624;2022-11-06T09:59:16;101050.0;;;14.4;76.0
52343;BME280;38277;51.972;4.624;2022-11-06T10:03:39;101040.0;;;14.4;76.0
52343;BME280;38277;51.972;4.624;2022-11-06T10:08:00;101040.0;;;14.5;75.5
52343;BME280;38277;51.972;4.624;2022-11-06T10:12:49;101040.0;;;14.5;75.0
52343;BME280;38277;51.972;4.624;2022-11-06T10:26:12;101020.0;;;14.9;74.0
52343;BME280;38277;51.972;4.624;2022-11-06T10:31:17;101020.0;;;15.0;73.5
52343;BME280;38277;51.972;4.624;2022-11-06T10:34:59;101010.0;;;15.0;73.0
52343;BME280;38277;51.972;4.624;2022-11-06T10:39:35;101000.0;;;15.1;72.0
52343;BME280;38277;51.972;4.624;2022-11-06T10:44:23;101000.0;;;14.9;72.5
52343;BME280;38277;51.972;4.624;2022-11-06T10:48:48;100990.0;;;14.9;73.0
52343;BME280;38277;51.972;4.624;2022-11-06T10:53:41;100980.0;;;14.9;73.0
52343;BME280;38277;51.972;4.624;2022-11-06T10:58:14;100980.0;;;14.9;73.5
52343;BME280;38277;51.972;4.624;2022-11-06T11:02:44;100970.0;;;14.8;73.5
52343;BME280;38277;51.972;4.624;2022-11-06T11:07:15;100980.0;;;14.8;73.5
52343;BME280;38277;51.972;4.624;2022-11-06T11:12:28;100980.0;;;14.6;74.5
52343;BME280;38277;51.972;4.624;2022-11-06T11:15:47;100970.0;;;14.4;76.0
52343;BME280;38277;51.972;4.624;2022-11-06T11:21:06;100970.0;;;14.1;77.5
52343;BME280;38277;51.972;4.624;2022-11-06T11:25:02;100960.0;;;13.9;79.0
52343;BME280;38277;51.972;4.624;2022-11-06T11:29:17;100970.0;;;13.8;80.5
52343;BME280;38277;51.972;4.624;2022-11-06T11:44:03;100940.0;;;13.5;82.5
52343;BME280;38277;51.972;4.624;2022-11-06T11:48:12;100920.0;;;13.5;83.0
52343;BME280;38277;51.972;4.624;2022-11-06T12:27:34;100860.0;;;13.4;81.5
52343;BME280;38277;51.972;4.624;2022-11-06T12:32:20;100850.0;;;13.4;81.5
52343;BME280;38277;51.972;4.624;2022-11-06T12:36:25;100840.0;;;13.4;81.5
52343;BME280;38277;51.972;4.624;2022-11-06T12:41:09;100840.0;;;13.5;81.0
52343;BME280;38277;51.972;4.624;2022-11-06T12:45:47;100840.0;;;13.5;81.0
52343;BME280;38277;51.972;4.624;2022-11-06T12:54:08;100830.0;;;13.4;81.5
52343;BME280;38277;51.972;4.624;2022-11-06T13:04:33;100830.0;;;13.1;82.0
52343;BME280;38277;51.972;4.624;2022-11-06T13:08:53;100830.0;;;13.1;82.5
52343;BME280;38277;51.972;4.624;2022-11-06T13:17:12;100820.0;;;12.9;83.5
52343;BME280;38277;51.972;4.624;2022-11-06T13:22:17;100820.0;;;12.9;83.5
52343;BME280;38277;51.972;4.624;2022-11-06T13:26:15;100820.0;;;12.8;84.5
52343;BME280;38277;51.972;4.624;2022-11-06T13:31:13;100820.0;;;12.8;84.5
52343;BME280;38277;51.972;4.624;2022-11-06T13:39:35;100810.0;;;12.6;85.5
52343;BME280;38277;51.972;4.624;2022-11-06T13:44:15;100810.0;;;12.6;85.5
52343;BME280;38277;51.972;4.624;2022-11-06T13:49:26;100810.0;;;12.5;86.0
52343;BME280;38277;51.972;4.624;2022-11-06T13:53:09;100800.0;;;12.4;87.0
52343;BME280;38277;51.972;4.624;2022-11-06T13:58:22;100790.0;;;12.3;87.5
52343;BME280;38277;51.972;4.624;2022-11-06T14:02:42;100790.0;;;12.3;88.0
52343;BME280;38277;51.972;4.624;2022-11-06T14:06:54;100780.0;;;12.3;88.0
52343;BME280;38277;51.972;4.624;2022-11-06T14:11:00;100790.0;;;12.3;88.5
52343;BME280;38277;51.972;4.624;2022-11-06T14:15:38;100780.0;;;12.2;88.5
52343;BME280;38277;51.972;4.624;2022-11-06T14:20:33;100760.0;;;12.2;89.0
52343;BME280;38277;51.972;4.624;2022-11-06T14:24:47;100760.0;;;12.1;89.0
52343;BME280;38277;51.972;4.624;2022-11-06T14:29:41;100750.0;;;12.0;88.5
52343;BME280;38277;51.972;4.624;2022-11-06T14:34:01;100740.0;;;11.9;89.0
52343;BME280;38277;51.972;4.624;2022-11-06T14:38:31;100740.0;;;11.9;89.5
52343;BME280;38277;51.972;4.624;2022-11-06T14:43:30;100720.0;;;11.9;89.5
52343;BME280;38277;51.972;4.624;2022-11-06T14:46:58;100720.0;;;11.8;89.5
52343;BME280;38277;51.972;4.624;2022-11-06T14:51:28;100710.0;;;11.8;89.5
52343;BME280;38277;51.972;4.624;2022-11-06T14:56:22;100710.0;;;11.7;89.5
52343;BME280;38277;51.972;4.624;2022-11-06T15:00:37;100690.0;;;11.7;89.0
52343;BME280;38277;51.972;4.624;2022-11-06T15:05:19;100680.0;;;11.6;89.0
52343;BME280;38277;51.972;4.624;2022-11-06T15:09:55;100680.0;;;11.5;88.5
52343;BME280;38277;51.972;4.624;2022-11-06T15:18:50;100670.0;;;11.4;88.5
52343;BME280;38277;51.972;4.624;2022-11-06T15:23:16;100650.0;;;11.3;88.5
52343;BME280;38277;51.972;4.624;2022-11-06T15:27:42;100650.0;;;11.2;88.5
52343;BME280;38277;51.972;4.624;2022-11-06T15:41:56;100640.0;;;11.0;88.5
52343;BME280;38277;51.972;4.624;2022-11-06T15:46:15;100640.0;;;10.9;88.5
52343;BME280;38277;51.972;4.624;2022-11-06T15:50:18;100630.0;;;10.8;88.0
52343;BME280;38277;51.972;4.624;2022-11-06T15:54:41;100620.0;;;10.7;88.5
52343;BME280;38277;51.972;4.624;2022-11-06T15:59:15;100620.0;;;10.6;88.5
52343;BME280;38277;51.972;4.624;2022-11-06T16:03:56;100620.0;;;10.6;89.0
52343;BME280;38277;51.972;4.624;2022-11-06T16:08:00;100620.0;;;10.5;88.5
52343;BME280;38277;51.972;4.624;2022-11-06T16:12:26;100610.0;;;10.4;88.5
52343;BME280;38277;51.972;4.624;2022-11-06T16:17:17;100600.0;;;10.4;89.0
52343;BME280;38277;51.972;4.624;2022-11-06T16:22:06;100590.0;;;10.4;89.0
52343;BME280;38277;51.972;4.624;2022-11-06T16:26:13;100590.0;;;10.3;89.0
52343;BME280;38277;51.972;4.624;2022-11-06T16:30:22;100590.0;;;10.3;89.0
52343;BME280;38277;51.972;4.624;2022-11-06T16:35:28;100600.0;;;10.3;89.5
52343;BME280;38277;51.972;4.624;2022-11-06T16:39:45;100600.0;;;10.3;89.0
52343;BME280;38277;51.972;4.624;2022-11-06T16:44:21;100600.0;;;10.3;89.5
52343;BME280;38277;51.972;4.624;2022-11-06T16:48:40;100610.0;;;10.2;89.5
52343;BME280;38277;51.972;4.624;2022-11-06T16:53:09;100610.0;;;10.2;89.0
52343;BME280;38277;51.972;4.624;2022-11-06T16:58:18;100590.0;;;10.2;89.5
52343;BME280;38277;51.972;4.624;2022-11-06T17:02:22;100580.0;;;10.2;90.0
52343;BME280;38277;51.972;4.624;2022-11-06T17:06:45;100590.0;;;10.2;90.5
52343;BME280;38277;51.972;4.624;2022-11-06T17:11:17;100570.0;;;10.1;90.5
52343;BME280;38277;51.972;4.624;2022-11-06T17:24:52;100590.0;;;10.1;91.0
52343;BME280;38277;51.972;4.624;2022-11-06T17:29:09;100590.0;;;10.2;91.0
52343;BME280;38277;51.972;4.624;2022-11-06T17:33:44;100600.0;;;10.2;91.5
52343;BME280;38277;51.972;4.624;2022-11-06T17:38:11;100590.0;;;10.2;91.0
52343;BME280;38277;51.972;4.624;2022-11-06T17:51:37;100580.0;;;10.3;91.5
52343;BME280;38277;51.972;4.624;2022-11-06T17:56:00;100590.0;;;10.3;91.5
52343;BME280;38277;51.972;4.624;2022-11-06T18:18:25;100580.0;;;10.6;91.5
52343;BME280;38277;51.972;4.624;2022-11-06T18:27:42;100590.0;;;10.7;91.0
52343;BME280;38277;51.972;4.624;2022-11-06T18:32:19;100570.0;;;10.8;91.0
52343;BME280;38277;51.972;4.624;2022-11-06T18:36:36;100570.0;;;10.8;90.5
52343;BME280;38277;51.972;4.624;2022-11-06T18:40:52;100580.0;;;10.9;90.5
52343;BME280;38277;51.972;4.624;2022-11-06T18:54:23;100570.0;;;10.8;91.5
52343;BME280;38277;51.972;4.624;2022-11-06T18:59:47;100580.0;;;10.7;92.0
52343;BME280;38277;51.972;4.624;2022-11-06T19:13:28;100530.0;;;10.8;93.0
52343;BME280;38277;51.972;4.624;2022-11-06T19:57:35;100580.0;;;11.3;93.5
52343;BME280;38277;51.972;4.624;2022-11-06T20:01:56;100580.0;;;11.3;93.0
52343;BME280;38277;51.972;4.624;2022-11-06T20:06:36;100590.0;;;11.4;93.0
52343;BME280;38277;51.972;4.624;2022-11-06T20:11:11;100590.0;;;11.5;92.5
52343;BME280;38277;51.972;4.624;2022-11-06T20:15:48;100590.0;;;11.6;92.0
52343;BME280;38277;51.972;4.624;2022-11-06T20:20:08;100580.0;;;11.7;91.5
52343;BME280;38277;51.972;4.624;2022-11-06T20:24:36;100580.0;;;11.8;91.0
52343;BME280;38277;51.972;4.624;2022-11-06T20:28:56;100590.0;;;11.8;91.0
52343;BME280;38277;51.972;4.624;2022-11-06T20:33:42;100580.0;;;11.8;91.0
52343;BME280;38277;51.972;4.624;2022-11-06T20:38:18;100590.0;;;11.8;90.5
52343;BME280;38277;51.972;4.624;2022-11-06T20:42:30;100600.0;;;11.8;90.5
52343;BME280;38277;51.972;4.624;2022-11-06T20:47:16;100620.0;;;11.8;90.5
52343;BME280;38277;51.972;4.624;2022-11-06T20:51:55;100620.0;;;11.8;90.0
52343;BME280;38277;51.972;4.624;2022-11-06T20:56:18;100630.0;;;11.8;90.5
52343;BME280;38277;51.972;4.624;2022-11-06T21:00:28;100630.0;;;11.8;90.5
52343;BME280;38277;51.972;4.624;2022-11-06T21:05:03;100640.0;;;11.8;90.5
52343;BME280;38277;51.972;4.624;2022-11-06T21:09:33;100660.0;;;11.9;90.0
52343;BME280;38277;51.972;4.624;2022-11-06T21:14:04;100650.0;;;12.0;89.5
52343;BME280;38277;51.972;4.624;2022-11-06T21:18:33;100650.0;;;12.0;90.0
52343;BME280;38277;51.972;4.624;2022-11-06T21:23:23;100670.0;;;12.0;90.0
52343;BME280;38277;51.972;4.624;2022-11-06T21:27:50;100670.0;;;12.1;90.0
52343;BME280;38277;51.972;4.624;2022-11-06T21:32:01;100660.0;;;12.1;90.0
52343;BME280;38277;51.972;4.624;2022-11-06T21:36:37;100660.0;;;12.2;90.0
52343;BME280;38277;51.972;4.624;2022-11-06T21:41:18;100670.0;;;12.2;90.0
52343;BME280;38277;51.972;4.624;2022-11-06T21:46:18;100670.0;;;12.2;90.0
52343;BME280;38277;51.972;4.624;2022-11-06T21:54:22;100670.0;;;12.2;90.0
52343;BME280;38277;51.972;4.624;2022-11-06T21:59:37;100680.0;;;12.1;90.5
52343;BME280;38277;51.972;4.624;2022-11-06T22:04:15;100690.0;;;12.1;91.0
52343;BME280;38277;51.972;4.624;2022-11-06T22:08:20;100690.0;;;12.1;91.0
52343;BME280;38277;51.972;4.624;2022-11-06T22:12:34;100690.0;;;12.2;91.0
52343;BME280;38277;51.972;4.624;2022-11-06T22:17:20;100690.0;;;12.1;91.0
52343;BME280;38277;51.972;4.624;2022-11-06T22:21:32;100680.0;;;12.1;91.0
52343;BME280;38277;51.972;4.624;2022-11-06T22:26:20;100700.0;;;12.1;91.5
52343;BME280;38277;51.972;4.624;2022-11-06T22:30:34;100710.0;;;12.2;91.5
52343;BME280;38277;51.972;4.624;2022-11-06T22:34:54;100700.0;;;12.3;90.5
52343;BME280;38277;51.972;4.624;2022-11-06T22:40:18;100700.0;;;12.3;90.5
52343;BME280;38277;51.972;4.624;2022-11-06T22:44:17;100710.0;;;12.3;90.5
52343;BME280;38277;51.972;4.624;2022-11-06T22:48:48;100710.0;;;12.4;90.5
52343;BME280;38277;51.972;4.624;2022-11-06T22:53:14;100720.0;;;12.5;90.0
52343;BME280;38277;51.972;4.624;2022-11-06T22:57:31;100720.0;;;12.5;90.0
52343;BME280;38277;51.972;4.624;2022-11-06T23:02:22;100730.0;;;12.5;89.5
52343;BME280;38277;51.972;4.624;2022-11-06T23:06:39;100740.0;;;12.5;89.5
52343;BME280;38277;51.972;4.624;2022-11-06T23:12:02;100730.0;;;12.5;89.5
52343;BME280;38277;51.972;4.624;2022-11-06T23:15:35;100740.0;;;12.5;89.5
52343;BME280;38277;51.972;4.624;2022-11-06T23:24:27;100740.0;;;12.6;89.0
52343;BME280;38277;51.972;4.624;2022-11-06T23:29:31;100750.0;;;12.6;89.0
52343;BME280;38277;51.972;4.624;2022-11-06T23:33:39;100750.0;;;12.6;88.5
52343;BME280;38277;51.972;4.624;2022-11-06T23:38:01;100740.0;;;12.6;88.5
52343;BME280;38277;51.972;4.624;2022-11-06T23:42:32;100750.0;;;12.6;88.5
52343;BME280;38277;51.972;4.624;2022-11-06T23:46:59;100740.0;;;12.6;88.5
52343;BME280;38277;51.972;4.624;2022-11-06T23:51:32;100750.0;;;12.6;88.5
